createdAt,value
2024-03-10T00:01:04.873Z,9.20
2024-03-10T00:04:11.829Z,9.20
2024-03-10T00:07:19.877Z,9.23
2024-03-10T00:10:25.986Z,9.26
2024-03-10T00:13:31.299Z,9.27
2024-03-10T00:16:37.397Z,9.28
2024-03-10T00:19:43.348Z,9.28
2024-03-10T00:22:53.010Z,9.26
2024-03-10T00:25:58.786Z,9.28
2024-03-10T00:29:05.072Z,9.26
2024-03-10T00:32:12.661Z,9.25
2024-03-10T00:35:19.658Z,9.20
2024-03-10T00:38:29.166Z,9.16
2024-03-10T00:41:36.953Z,9.17
2024-03-10T00:44:42.966Z,9.18
2024-03-10T00:47:49.684Z,9.19
2024-03-10T00:50:55.456Z,9.15
2024-03-10T00:54:04.183Z,9.14
2024-03-10T00:57:10.059Z,9.06
2024-03-10T01:00:17.498Z,9.00
2024-03-10T01:03:24.086Z,8.94
2024-03-10T01:06:30.283Z,8.86
2024-03-10T01:09:38.596Z,8.76
2024-03-10T01:12:44.968Z,8.66
2024-03-10T01:15:50.319Z,8.57
2024-03-10T01:18:56.536Z,8.54
2024-03-10T01:22:02.606Z,8.46
2024-03-10T01:25:11.952Z,8.41
2024-03-10T01:28:17.367Z,8.38
2024-03-10T01:31:23.662Z,8.31
2024-03-10T01:34:29.003Z,8.25
2024-03-10T01:37:35.432Z,8.18
2024-03-10T01:40:43.330Z,8.06
2024-03-10T01:43:52.187Z,7.98
2024-03-10T01:46:58.104Z,7.89
2024-03-10T01:50:07.610Z,7.85
2024-03-10T01:53:13.922Z,7.82
2024-03-10T01:56:23.330Z,7.79
2024-03-10T01:59:30.085Z,7.74
2024-03-10T02:02:36.766Z,7.76
2024-03-10T02:05:42.447Z,7.72
2024-03-10T02:08:50.017Z,7.60
2024-03-10T02:11:58.805Z,7.53
2024-03-10T02:15:08.342Z,7.52
2024-03-10T02:18:14.336Z,7.44
2024-03-10T02:21:23.010Z,7.36
2024-03-10T02:24:38.272Z,7.32
2024-03-10T02:27:51.620Z,7.26
2024-03-10T02:31:00.040Z,7.25
2024-03-10T02:34:18.650Z,7.27
2024-03-10T02:37:37.988Z,7.25
2024-03-10T02:40:57.023Z,7.24
2024-03-10T02:44:17.539Z,7.20
2024-03-10T02:47:24.614Z,7.19
2024-03-10T02:50:30.124Z,7.16
2024-03-10T02:53:36.751Z,7.14
2024-03-10T02:56:42.156Z,7.14
2024-03-10T02:59:50.847Z,7.10
2024-03-10T03:02:58.581Z,7.07
2024-03-10T03:06:05.239Z,7.06
2024-03-10T03:09:10.662Z,7.05
2024-03-10T03:12:17.857Z,7.05
2024-03-10T03:15:26.015Z,7.02
2024-03-10T03:18:32.792Z,7.00
2024-03-10T03:21:38.240Z,6.99
2024-03-10T03:24:44.429Z,6.97
2024-03-10T03:27:52.425Z,6.94
2024-03-10T03:31:01.263Z,6.97
2024-03-10T03:34:06.716Z,6.97
2024-03-10T03:37:14.276Z,6.96
2024-03-10T03:40:20.762Z,6.88
2024-03-10T03:43:27.268Z,6.98
2024-03-10T03:46:35.411Z,7.00
2024-03-10T03:49:42.096Z,6.98
2024-03-10T03:52:47.480Z,6.97
2024-03-10T03:55:53.875Z,6.94
2024-03-10T03:58:59.240Z,6.92
2024-03-10T04:02:08.568Z,6.90
2024-03-10T04:05:13.980Z,6.89
2024-03-10T04:08:21.292Z,6.87
2024-03-10T04:11:27.017Z,6.88
2024-03-10T04:14:33.516Z,6.89
2024-03-10T04:17:41.601Z,6.86
2024-03-10T04:20:49.886Z,6.82
2024-03-10T04:23:55.296Z,6.81
2024-03-10T04:27:01.678Z,6.80
2024-03-10T04:30:08.621Z,6.79
2024-03-10T04:33:17.318Z,6.78
2024-03-10T04:36:22.704Z,6.73
2024-03-10T04:39:29.019Z,6.74
2024-03-10T04:42:35.077Z,6.74
2024-03-10T04:45:41.405Z,6.75
2024-03-10T04:48:51.974Z,6.71
2024-03-10T04:51:58.250Z,6.70
2024-03-10T04:55:03.602Z,6.66
2024-03-10T04:58:09.838Z,6.65
2024-03-10T05:01:15.371Z,6.62
2024-03-10T05:04:24.763Z,6.59
2024-03-10T05:07:30.195Z,6.57
2024-03-10T05:10:36.364Z,6.56
2024-03-10T05:13:41.825Z,6.54
2024-03-10T05:16:48.167Z,6.49
2024-03-10T05:19:56.126Z,6.46
2024-03-10T05:23:02.989Z,6.47
2024-03-10T05:26:08.875Z,6.47
2024-03-10T05:29:15.169Z,6.48
2024-03-10T05:32:20.545Z,6.49
2024-03-10T05:35:29.421Z,6.48
2024-03-10T05:38:35.001Z,6.47
2024-03-10T05:41:42.221Z,6.43
2024-03-10T05:44:47.760Z,6.42
2024-03-10T05:47:54.562Z,6.44
2024-03-10T05:51:02.520Z,6.39
2024-03-10T05:54:09.357Z,6.36
2024-03-10T05:57:15.242Z,6.35
2024-03-10T06:00:22.356Z,6.33
2024-03-10T06:03:27.878Z,6.36
2024-03-10T06:06:38.328Z,6.39
2024-03-10T06:09:43.671Z,6.43
2024-03-10T06:12:49.834Z,6.49
2024-03-10T06:15:56.241Z,6.55
2024-03-10T06:19:15.172Z,6.63
2024-03-10T06:22:35.750Z,6.67
2024-03-10T06:25:41.892Z,6.70
2024-03-10T06:28:47.327Z,6.74
2024-03-10T06:31:55.137Z,6.78
2024-03-10T06:35:00.558Z,6.83
2024-03-10T06:38:09.325Z,6.88
2024-03-10T06:41:15.341Z,6.87
2024-03-10T06:44:23.473Z,6.87
2024-03-10T06:47:28.964Z,6.86
2024-03-10T06:50:35.262Z,6.88
2024-03-10T06:53:43.871Z,6.89
2024-03-10T06:56:50.057Z,6.90
2024-03-10T06:59:55.669Z,6.94
2024-03-10T07:03:02.028Z,6.99
2024-03-10T07:06:08.922Z,7.09
2024-03-10T07:09:17.754Z,7.22
2024-03-10T07:12:23.189Z,7.33
2024-03-10T07:15:29.580Z,7.49
2024-03-10T07:18:36.533Z,7.67
2024-03-10T07:21:42.708Z,7.82
2024-03-10T07:24:50.754Z,8.00
2024-03-10T07:27:56.915Z,8.16
2024-03-10T07:31:02.442Z,8.37
2024-03-10T07:34:08.723Z,8.59
2024-03-10T07:37:14.133Z,8.81
2024-03-10T07:40:23.189Z,9.06
2024-03-10T07:43:29.794Z,9.31
2024-03-10T07:46:36.094Z,9.59
2024-03-10T07:49:42.106Z,9.90
2024-03-10T07:52:50.463Z,10.23
2024-03-10T07:55:59.642Z,10.60
2024-03-10T07:59:06.179Z,10.99
2024-03-10T08:02:11.502Z,11.42
2024-03-10T08:05:17.918Z,11.83
2024-03-10T08:08:23.378Z,12.31
2024-03-10T08:11:32.304Z,12.87
2024-03-10T08:14:39.585Z,13.51
2024-03-10T08:17:45.876Z,14.10
2024-03-10T08:20:51.700Z,14.51
2024-03-10T08:23:57.868Z,14.85
2024-03-10T08:27:05.772Z,15.19
2024-03-10T08:30:13.205Z,15.30
2024-03-10T08:33:18.726Z,15.28
2024-03-10T08:36:24.819Z,15.17
2024-03-10T08:39:31.468Z,15.01
2024-03-10T08:42:40.864Z,14.82
2024-03-10T08:45:46.407Z,14.73
2024-03-10T08:48:53.214Z,14.56
2024-03-10T08:51:58.859Z,14.40
2024-03-10T08:55:06.485Z,14.30
2024-03-10T08:58:14.716Z,14.24
2024-03-10T09:01:21.951Z,14.16
2024-03-10T09:04:27.490Z,14.15
2024-03-10T09:07:33.701Z,14.05
2024-03-10T09:10:49.634Z,14.07
2024-03-10T09:14:02.793Z,14.11
2024-03-10T09:17:08.686Z,14.15
2024-03-10T09:20:16.048Z,14.18
2024-03-10T09:23:24.772Z,14.19
2024-03-10T09:26:32.685Z,14.21
2024-03-10T09:29:43.637Z,14.36
2024-03-10T09:32:52.189Z,14.62
2024-03-10T09:35:59.919Z,14.78
2024-03-10T09:39:14.319Z,14.99
2024-03-10T09:42:20.626Z,15.20
2024-03-10T09:45:38.800Z,15.35
2024-03-10T09:48:46.638Z,15.41
2024-03-10T09:51:54.552Z,15.57
2024-03-10T09:54:59.982Z,15.62
2024-03-10T09:58:22.790Z,15.50
2024-03-10T10:01:39.907Z,15.53
2024-03-10T10:05:02.209Z,15.60
2024-03-10T10:08:12.161Z,15.69
2024-03-10T10:11:20.057Z,15.93
2024-03-10T10:14:31.757Z,16.12
2024-03-10T10:17:40.788Z,16.28
2024-03-10T10:20:52.917Z,16.53
2024-03-10T10:24:01.847Z,16.61
2024-03-10T10:27:10.925Z,16.85
2024-03-10T10:30:24.153Z,17.10
2024-03-10T10:33:33.761Z,17.32
2024-03-10T10:36:42.918Z,17.52
2024-03-10T10:39:48.512Z,17.65
2024-03-10T10:43:04.518Z,17.58
2024-03-10T10:46:13.525Z,17.57
2024-03-10T10:49:23.547Z,17.53
2024-03-10T10:52:29.311Z,17.49
2024-03-10T10:55:41.624Z,17.42
2024-03-10T10:58:54.820Z,17.35
2024-03-10T11:02:21.340Z,17.37
2024-03-10T11:05:29.523Z,17.44
2024-03-10T11:08:38.432Z,17.39
2024-03-10T11:11:53.771Z,17.37
2024-03-10T11:15:00.344Z,17.37
2024-03-10T11:18:30.900Z,17.30
2024-03-10T11:21:39.921Z,17.23
2024-03-10T11:24:47.066Z,17.14
2024-03-10T11:27:53.748Z,17.04
2024-03-10T11:31:02.655Z,17.00
2024-03-10T11:34:12.256Z,17.02
2024-03-10T11:37:23.294Z,17.10
2024-03-10T11:40:31.792Z,17.22
2024-03-10T11:43:37.701Z,17.32
2024-03-10T11:46:44.759Z,17.48
2024-03-10T11:49:50.234Z,17.55
2024-03-10T11:52:59.392Z,17.51
2024-03-10T11:56:05.615Z,17.53
2024-03-10T11:59:12.992Z,17.50
2024-03-10T12:02:18.573Z,17.47
2024-03-10T12:05:26.052Z,17.52
2024-03-10T12:08:38.671Z,17.47
2024-03-10T12:11:47.748Z,17.39
2024-03-10T12:14:53.154Z,17.40
2024-03-10T12:18:02.442Z,17.44
2024-03-10T12:21:11.672Z,17.45
2024-03-10T12:24:21.696Z,17.38
2024-03-10T12:27:27.104Z,17.40
2024-03-10T12:30:33.329Z,17.37
2024-03-10T12:33:40.866Z,17.33
2024-03-10T12:36:47.224Z,17.22
2024-03-10T12:40:06.939Z,17.19
2024-03-10T12:43:13.132Z,17.14
2024-03-10T12:46:19.559Z,17.09
2024-03-10T12:49:25.867Z,16.96
2024-03-10T12:52:31.327Z,16.99
2024-03-10T12:55:43.287Z,17.05
2024-03-10T12:58:48.741Z,17.08
2024-03-10T13:01:55.561Z,17.16
2024-03-10T13:05:00.990Z,17.24
2024-03-10T13:08:11.000Z,17.26
2024-03-10T13:11:20.322Z,17.37
2024-03-10T13:14:26.764Z,17.38
2024-03-10T13:17:32.261Z,17.42
2024-03-10T13:20:45.352Z,17.43
2024-03-10T13:23:51.069Z,17.42
2024-03-10T13:27:00.646Z,17.39
2024-03-10T13:30:06.995Z,17.32
2024-03-10T13:33:16.402Z,17.30
2024-03-10T13:36:22.188Z,17.25
2024-03-10T13:39:29.300Z,17.14
2024-03-10T13:42:38.987Z,17.08
2024-03-10T13:45:45.896Z,16.96
2024-03-10T13:48:51.281Z,16.94
2024-03-10T13:51:58.987Z,16.84
2024-03-10T13:55:04.647Z,16.81
2024-03-10T13:58:14.601Z,16.89
2024-03-10T14:01:20.013Z,16.90
2024-03-10T14:04:27.900Z,16.89
2024-03-10T14:07:33.545Z,16.92
2024-03-10T14:10:42.650Z,16.91
2024-03-10T14:13:50.866Z,16.95
2024-03-10T14:16:58.786Z,16.95
2024-03-10T14:20:06.350Z,16.85
2024-03-10T14:23:12.973Z,16.65
2024-03-10T14:26:20.089Z,16.59
2024-03-10T14:29:29.028Z,16.56
2024-03-10T14:32:34.549Z,16.51
2024-03-10T14:35:41.152Z,16.44
2024-03-10T14:38:46.793Z,16.35
2024-03-10T14:41:53.062Z,16.33
2024-03-10T14:45:02.800Z,16.29
2024-03-10T14:48:10.051Z,16.29
2024-03-10T14:51:15.482Z,16.17
2024-03-10T14:54:21.574Z,16.04
2024-03-10T14:57:28.739Z,16.07
2024-03-10T15:00:41.703Z,16.02
2024-03-10T15:03:49.880Z,15.96
2024-03-10T15:06:57.957Z,15.92
2024-03-10T15:10:09.896Z,15.91
2024-03-10T15:13:19.461Z,15.84
2024-03-10T15:16:27.683Z,15.79
2024-03-10T15:19:33.865Z,15.63
2024-03-10T15:22:41.815Z,15.57
2024-03-10T15:25:51.101Z,15.45
2024-03-10T15:28:59.380Z,15.33
2024-03-10T15:32:09.089Z,15.25
2024-03-10T15:35:15.141Z,15.10
2024-03-10T15:38:22.740Z,15.02
2024-03-10T15:41:28.429Z,14.89
2024-03-10T15:44:39.264Z,14.77
2024-03-10T15:47:50.129Z,14.67
2024-03-10T15:50:56.783Z,14.56
2024-03-10T15:54:02.070Z,14.48
2024-03-10T15:57:09.047Z,14.44
2024-03-10T16:00:17.914Z,14.39
2024-03-10T16:03:43.641Z,14.35
2024-03-10T16:06:48.994Z,14.34
2024-03-10T16:09:57.486Z,14.25
2024-03-10T16:13:07.346Z,14.02
2024-03-10T16:16:17.298Z,14.03
2024-03-10T16:19:26.062Z,14.02
2024-03-10T16:22:32.214Z,13.90
2024-03-10T16:25:37.900Z,13.83
2024-03-10T16:28:44.685Z,13.84
2024-03-10T16:31:50.626Z,13.87
2024-03-10T16:34:59.560Z,13.83
2024-03-10T16:38:08.016Z,13.87
2024-03-10T16:41:15.973Z,14.01
2024-03-10T16:44:21.569Z,14.03
2024-03-10T16:47:28.443Z,14.05
2024-03-10T16:50:37.324Z,14.06
2024-03-10T16:53:43.798Z,13.98
2024-03-10T16:56:49.251Z,13.85
2024-03-10T16:59:55.618Z,13.79
2024-03-10T17:03:02.669Z,13.71
2024-03-10T17:06:18.051Z,13.70
2024-03-10T17:09:24.220Z,13.62
2024-03-10T17:12:31.238Z,13.62
2024-03-10T17:15:39.175Z,13.54
2024-03-10T17:18:47.479Z,13.54
2024-03-10T17:21:57.557Z,13.46
2024-03-10T17:25:03.773Z,13.44
2024-03-10T17:28:10.254Z,13.39
2024-03-10T17:31:16.526Z,13.37
2024-03-10T17:34:24.993Z,13.32
2024-03-10T17:37:35.145Z,13.25
2024-03-10T17:40:41.732Z,13.21
2024-03-10T17:43:48.449Z,13.09
2024-03-10T17:46:53.983Z,13.03
2024-03-10T17:50:00.148Z,13.01
2024-03-10T17:53:09.078Z,12.92
2024-03-10T17:56:19.151Z,12.78
2024-03-10T17:59:24.855Z,12.64
2024-03-10T18:02:31.932Z,12.54
2024-03-10T18:05:38.143Z,12.45
2024-03-10T18:08:50.630Z,12.37
2024-03-10T18:11:57.447Z,12.25
2024-03-10T18:15:03.699Z,12.19
2024-03-10T18:18:12.873Z,12.16
2024-03-10T18:21:19.973Z,12.03
2024-03-10T18:24:41.416Z,12.01
2024-03-10T18:27:52.316Z,12.03
2024-03-10T18:30:58.661Z,12.09
2024-03-10T18:34:16.091Z,12.14
2024-03-10T18:37:21.544Z,12.16
2024-03-10T18:40:37.524Z,12.22
2024-03-10T18:43:43.149Z,12.22
2024-03-10T18:46:55.393Z,12.23
2024-03-10T18:50:00.930Z,12.23
2024-03-10T18:53:07.785Z,12.26
2024-03-10T18:56:17.144Z,12.25
2024-03-10T18:59:37.488Z,12.18
2024-03-10T19:02:44.018Z,12.09
2024-03-10T19:05:52.350Z,12.05
2024-03-10T19:08:58.664Z,12.01
2024-03-10T19:12:07.937Z,11.98
2024-03-10T19:15:15.806Z,11.93
2024-03-10T19:28:08.267Z,11.83
2024-03-10T19:31:17.393Z,11.81
2024-03-10T19:34:33.173Z,11.80
2024-03-10T19:37:40.151Z,11.71
2024-03-10T19:40:46.462Z,11.61
2024-03-10T19:43:56.952Z,11.59
2024-03-10T19:47:02.349Z,11.47
2024-03-10T19:50:14.344Z,11.43
2024-03-10T19:53:27.940Z,11.38
2024-03-10T19:56:38.017Z,11.31
2024-03-10T19:59:50.959Z,11.25
2024-03-10T20:02:59.159Z,11.19
2024-03-10T20:06:06.331Z,11.17
2024-03-10T20:09:18.046Z,11.16
2024-03-10T20:12:27.870Z,11.14
2024-03-10T20:15:37.713Z,11.09
2024-03-10T20:18:43.269Z,11.06
2024-03-10T20:21:55.459Z,11.06
2024-03-10T20:25:01.672Z,11.03
2024-03-10T20:28:29.851Z,10.93
2024-03-10T20:31:37.989Z,10.84
2024-03-10T20:34:52.745Z,10.80
2024-03-10T20:37:58.269Z,10.77
2024-03-10T20:41:17.165Z,10.73
2024-03-10T20:44:24.739Z,10.61
2024-03-10T20:47:37.534Z,10.69
2024-03-10T20:54:30.190Z,10.62
2024-03-10T20:57:42.856Z,10.60
2024-03-10T21:00:51.050Z,10.53
2024-03-10T21:04:05.204Z,10.57
2024-03-10T21:07:14.473Z,10.45
2024-03-10T21:10:23.461Z,10.53
2024-03-10T21:13:34.061Z,10.51
2024-03-10T21:16:40.555Z,10.47
2024-03-10T21:19:51.916Z,10.45
2024-03-10T21:22:57.435Z,10.44
2024-03-10T21:26:05.628Z,10.39
2024-03-10T21:29:12.077Z,10.39
2024-03-10T21:32:18.362Z,10.33
2024-03-10T21:35:26.738Z,10.43
2024-03-10T21:38:33.647Z,10.37
2024-03-10T21:41:39.162Z,10.43
2024-03-10T21:44:46.343Z,10.40
2024-03-10T21:47:51.931Z,10.37
2024-03-10T21:51:00.791Z,10.34
2024-03-10T21:54:08.007Z,10.27
2024-03-10T21:57:14.207Z,10.31
2024-03-10T22:00:21.627Z,10.31
2024-03-10T22:03:27.905Z,10.25
2024-03-10T22:06:37.026Z,10.28
2024-03-10T22:09:43.184Z,10.31
2024-03-10T22:12:49.589Z,10.32
2024-03-10T22:15:55.980Z,10.28
2024-03-10T22:19:01.420Z,10.32
2024-03-10T22:22:10.203Z,10.38
2024-03-10T22:25:17.749Z,10.41
2024-03-10T22:28:23.948Z,10.43
2024-03-10T22:31:31.690Z,10.43
2024-03-10T22:34:38.664Z,10.41
2024-03-10T22:37:49.619Z,10.40
2024-03-10T22:40:55.992Z,10.38
2024-03-10T22:44:01.380Z,10.36
2024-03-10T22:47:07.898Z,10.36
2024-03-10T22:50:15.856Z,10.37
2024-03-10T22:53:24.777Z,10.35
2024-03-10T22:56:30.279Z,10.36
2024-03-10T22:59:36.518Z,10.35
2024-03-10T23:02:42.225Z,10.36
2024-03-10T23:05:49.600Z,10.37
2024-03-10T23:08:58.725Z,10.34
2024-03-10T23:12:04.998Z,10.32
2024-03-10T23:15:13.042Z,10.28
2024-03-10T23:18:26.145Z,10.28
2024-03-10T23:21:34.346Z,10.23
2024-03-10T23:24:44.134Z,10.22
2024-03-10T23:27:49.705Z,10.19
2024-03-10T23:30:56.525Z,10.22
2024-03-10T23:34:01.830Z,10.19
2024-03-10T23:37:09.295Z,10.21
2024-03-10T23:40:17.621Z,10.23
2024-03-10T23:43:23.731Z,10.23
2024-03-10T23:46:29.122Z,10.25
2024-03-10T23:49:37.063Z,10.30
2024-03-10T23:52:45.703Z,10.32
2024-03-10T23:56:05.234Z,10.39
2024-03-10T23:59:11.851Z,10.41
